Time;durP1;ratioP1;P1;durP2;ratioP2;P2;SDS_P1;SDS_P2;PMS_P1;PMS_P2;Temp;Humidity;BMP_temperature;BMP_pressure;BME280_temperature;BME280_humidity;BME280_pressure;Samples;Min_cycle;Max_cycle;Signal;HPM_P1;HPM_P2
2023/08/09 00:03:01;;;;;;;4.50;3.60;;;;;;;14.82;68.94;100127.55;111320;1259;21961;-83
2023/08/09 00:05:47;;;;;;;4.10;3.20;;;;;;;14.80;69.11;100133.84;111071;1259;22978;-82
2023/08/09 00:08:39;;;;;;;5.70;3.30;;;;;;;14.79;69.06;100132.13;111132;1259;21965;-81
2023/08/09 00:11:42;;;;;;;5.80;3.50;;;;;;;14.73;69.09;100128.27;111277;1259;22016;-82
2023/08/09 00:14:52;;;;;;;4.20;3.60;;;;;;;14.70;69.43;100127.10;111339;1259;23161;-81
2023/08/09 00:17:47;;;;;;;3.50;3.10;;;;;;;14.70;69.71;100130.36;111392;1255;21956;-80
2023/08/09 00:21:12;;;;;;;5.10;3.40;;;;;;;14.69;70.03;100128.70;111610;1255;21985;-82
2023/08/09 00:24:20;;;;;;;5.60;3.60;;;;;;;14.70;70.09;100133.02;111579;1254;22015;-82
2023/08/09 00:27:13;;;;;;;;;;;;;;;;;;;;;
2023/08/09 00:29:54;;;;;;;4.30;3.10;;;;;;;14.73;69.87;100126.03;110781;1261;22057;-80
2023/08/09 00:32:35;;;;;;;3.80;3.10;;;;;;;14.76;69.98;100124.94;110774;1264;21978;-81
2023/08/09 00:35:15;;;;;;;4.20;3.30;;;;;;;14.77;69.78;100123.67;110729;1264;21979;-81
2023/08/09 00:38:03;;;;;;;5.10;2.60;;;;;;;14.79;69.77;100131.09;110499;1263;22738;-82
2023/08/09 00:40:41;;;;;;;5.80;3.30;;;;;;;14.81;69.48;100131.81;110472;1264;22351;-81
2023/08/09 00:43:24;;;;;;;5.30;3.80;;;;;;;14.79;69.33;100129.16;110684;1264;22327;-79
2023/08/09 00:46:08;;;;;;;4.00;2.90;;;;;;;14.80;69.34;100123.35;110992;1259;21959;-81
2023/08/09 00:48:45;;;;;;;5.80;3.30;;;;;;;14.80;69.17;100118.23;111098;1259;22146;-80
2023/08/09 00:51:27;;;;;;;6.00;3.50;;;;;;;14.77;69.02;100122.63;111099;1255;23033;-81
2023/08/09 00:54:14;;;;;;;7.10;3.30;;;;;;;14.72;69.14;100124.67;111481;1252;22727;-80
2023/08/09 00:57:02;;;;;;;4.70;3.30;;;;;;;14.70;69.29;100124.45;111338;1255;21972;-80
2023/08/09 00:59:43;;;;;;;5.30;3.20;;;;;;;14.72;69.46;100131.01;111202;1255;21935;-80
2023/08/09 01:02:32;;;;;;;5.00;3.90;;;;;;;14.71;69.62;100132.48;111404;1255;23592;-82
2023/08/09 01:05:13;;;;;;;4.00;3.50;;;;;;;14.73;69.82;100136.55;110830;1260;21968;-81
2023/08/09 01:08:29;;;;;;;4.00;3.00;;;;;;;14.75;69.80;100134.34;110922;1260;23110;-80
2023/08/09 01:11:17;;;;;;;6.50;3.80;;;;;;;14.71;69.83;100134.55;110449;1266;23890;-81
2023/08/09 01:13:54;;;;;;;5.90;3.40;;;;;;;14.64;69.95;100126.16;109509;1272;21981;-82
2023/08/09 01:16:41;;;;;;;5.90;3.30;;;;;;;14.61;69.93;100123.01;109487;1272;21995;-82
2023/08/09 01:19:50;;;;;;;4.90;3.60;;;;;;;14.54;70.12;100124.82;109426;1272;21978;-83
2023/08/09 01:22:38;;;;;;;6.20;3.80;;;;;;;14.45;70.32;100132.52;109309;1272;23947;-83
2023/08/09 01:25:43;;;;;;;5.60;3.80;;;;;;;14.35;70.53;100135.87;109207;1277;22007;-84
2023/08/09 01:28:48;;;;;;;5.10;4.50;;;;;;;14.24;70.75;100136.84;109262;1276;22142;-82
2023/08/09 01:31:26;;;;;;;9.10;4.60;;;;;;;14.17;71.15;100144.08;109422;1272;21982;-81
2023/08/09 01:34:10;;;;;;;10.60;4.80;;;;;;;14.15;71.37;100149.45;109830;1272;22268;-81
2023/08/09 01:37:12;;;;;;;11.20;4.40;;;;;;;14.14;71.58;100152.60;109792;1271;23599;-81
2023/08/09 01:40:12;;;;;;;5.40;4.30;;;;;;;14.12;71.87;100149.23;109532;1272;22385;-80
2023/08/09 01:42:46;;;;;;;7.10;4.60;;;;;;;14.13;71.90;100147.09;109750;1266;21967;-80
2023/08/09 01:45:19;;;;;;;7.60;4.20;;;;;;;14.11;72.00;100141.23;110041;1266;24412;-80
2023/08/09 01:47:57;;;;;;;8.90;4.50;;;;;;;14.09;72.24;100134.69;110165;1265;24244;-80
2023/08/09 01:51:01;;;;;;;5.00;4.10;;;;;;;14.08;72.45;100131.63;110266;1266;22950;-81
2023/08/09 01:53:48;;;;;;;4.50;4.10;;;;;;;14.07;72.68;100126.95;109710;1271;22751;-81
2023/08/09 01:56:30;;;;;;;5.70;4.60;;;;;;;14.08;72.56;100128.83;110080;1265;23050;-81
2023/08/09 01:59:19;;;;;;;5.60;4.00;;;;;;;14.08;72.75;100124.27;110807;1260;21976;-83
2023/08/09 02:02:13;;;;;;;6.90;4.00;;;;;;;14.08;72.92;100124.07;111075;1259;21941;-81
2023/08/09 02:04:48;;;;;;;9.30;4.10;;;;;;;14.14;72.81;100126.35;111043;1259;21960;-80
2023/08/09 02:07:43;;;;;;;8.80;4.00;;;;;;;14.17;72.89;100124.14;111069;1260;22112;-80
2023/08/09 02:10:28;;;;;;;6.00;4.40;;;;;;;14.17;72.85;100127.61;110910;1260;21963;-81
2023/08/09 02:13:14;;;;;;;4.90;4.40;;;;;;;14.19;72.94;100130.14;111179;1255;21982;-81
2023/08/09 02:15:55;;;;;;;4.30;3.50;;;;;;;14.23;72.95;100131.65;111513;1255;22122;-82
2023/08/09 02:18:52;;;;;;;4.40;3.50;;;;;;;14.24;72.89;100139.45;110739;1261;21975;-82
2023/08/09 02:21:44;;;;;;;7.60;4.20;;;;;;;14.25;72.83;100132.23;110552;1261;23609;-82
2023/08/09 02:24:40;;;;;;;6.90;3.80;;;;;;;14.27;72.99;100136.33;110816;1259;21991;-81
2023/08/09 02:27:22;;;;;;;7.80;3.70;;;;;;;14.30;72.79;100137.05;110871;1261;22163;-81
2023/08/09 02:29:55;;;;;;;3.80;3.40;;;;;;;14.28;72.49;100132.45;110770;1261;22036;-80
2023/08/09 02:32:37;;;;;;;8.70;3.80;;;;;;;14.21;72.43;100131.25;110087;1262;22741;-81
2023/08/09 02:35:23;;;;;;;4.40;3.20;;;;;;;14.19;72.50;100137.14;110474;1266;22190;-82
2023/08/09 02:37:56;;;;;;;7.30;3.30;;;;;;;14.19;72.56;100132.76;110115;1265;21974;-82
2023/08/09 02:40:27;;;;;;;4.40;3.80;;;;;;;14.20;72.46;100131.46;109436;1272;22004;-81
2023/08/09 02:43:00;;;;;;;6.70;3.90;;;;;;;14.16;72.31;100132.02;109288;1275;22460;-82
2023/08/09 02:45:50;;;;;;;6.50;4.40;;;;;;;14.17;72.44;100140.71;109227;1277;22009;-82
2023/08/09 02:48:29;;;;;;;4.80;4.00;;;;;;;14.16;72.49;100136.59;109226;1271;22043;-80
2023/08/09 02:51:07;;;;;;;3.80;3.40;;;;;;;14.18;72.54;100143.27;109322;1277;21986;-82
2023/08/09 02:54:07;;;;;;;5.00;3.00;;;;;;;14.22;72.62;100146.05;109224;1277;23046;-82
2023/08/09 02:56:44;;;;;;;4.70;3.60;;;;;;;14.26;72.49;100149.15;109527;1268;21972;-82
2023/08/09 02:59:17;;;;;;;6.70;3.70;;;;;;;14.23;72.39;100145.63;109877;1269;21972;-81
2023/08/09 03:01:55;;;;;;;6.10;3.40;;;;;;;14.24;72.37;100146.48;110553;1262;22231;-79
2023/08/09 03:04:42;;;;;;;5.00;3.80;;;;;;;14.22;72.24;100144.48;110845;1256;24290;-82
2023/08/09 03:07:33;;;;;;;8.70;3.90;;;;;;;14.17;72.21;100146.47;111238;1256;21967;-82
2023/08/09 03:10:09;;;;;;;5.30;3.80;;;;;;;14.15;72.18;100144.34;111505;1255;21978;-81
2023/08/09 03:12:55;;;;;;;4.30;3.60;;;;;;;14.13;72.13;100140.77;111144;1256;21977;-82
2023/08/09 03:15:32;;;;;;;4.30;3.90;;;;;;;14.11;72.21;100146.65;110755;1260;23848;-82
2023/08/09 03:18:15;;;;;;;5.20;3.80;;;;;;;14.09;72.27;100148.17;110894;1260;21940;-82
2023/08/09 03:20:58;;;;;;;6.50;4.10;;;;;;;14.06;72.15;100148.34;110121;1267;21976;-80
2023/08/09 03:23:40;;;;;;;5.50;3.60;;;;;;;14.03;72.27;100153.05;110110;1267;22895;-81
2023/08/09 03:26:13;;;;;;;7.50;4.60;;;;;;;14.05;72.56;100151.20;110335;1267;23615;-82
2023/08/09 03:28:48;;;;;;;5.40;4.20;;;;;;;14.09;72.56;100155.88;109766;1270;21969;-82
2023/08/09 03:31:22;;;;;;;7.20;4.20;;;;;;;14.09;72.48;100155.86;109747;1271;21973;-81
2023/08/09 03:34:02;;;;;;;10.20;9.20;;;;;;;14.07;72.37;100155.29;109889;1267;23627;-81
2023/08/09 03:36:44;;;;;;;9.00;6.20;;;;;;;14.05;72.46;100163.45;109485;1272;23702;-82
2023/08/09 03:39:19;;;;;;;8.50;5.20;;;;;;;14.08;72.67;100168.52;109904;1265;23757;-81
2023/08/09 03:42:03;;;;;;;6.20;3.60;;;;;;;14.06;72.42;100170.88;110362;1265;21976;-84
2023/08/09 03:44:43;;;;;;;5.60;4.00;;;;;;;14.04;72.53;100164.89;109893;1270;21990;-82
2023/08/09 03:47:21;;;;;;;7.30;3.60;;;;;;;14.08;72.48;100157.65;109777;1265;21998;-82
2023/08/09 03:50:00;;;;;;;5.20;3.90;;;;;;;14.08;72.52;100157.66;109392;1275;22000;-82
2023/08/09 03:52:37;;;;;;;7.80;3.80;;;;;;;14.11;72.51;100154.55;109290;1276;22033;-83
2023/08/09 03:55:09;;;;;;;4.60;4.00;;;;;;;14.12;72.23;100147.98;109422;1273;22000;-81
2023/08/09 03:57:39;;;;;;;4.70;3.30;;;;;;;14.12;72.23;100148.05;109551;1274;23756;-81
2023/08/09 04:00:26;;;;;;;5.60;3.70;;;;;;;14.13;72.30;100148.12;109343;1274;21825;-81
2023/08/09 04:03:02;;;;;;;6.00;4.10;;;;;;;14.17;72.42;100151.75;109537;1270;22474;-80
2023/08/09 04:06:11;;;;;;;5.30;3.30;;;;;;;14.18;72.19;100156.41;110232;1265;22300;-82
2023/08/09 04:09:09;;;;;;;6.40;4.40;;;;;;;14.22;72.30;100154.62;110072;1266;22042;-83
2023/08/09 04:11:40;;;;;;;10.10;3.90;;;;;;;14.29;72.12;100150.23;110283;1266;23031;-82
2023/08/09 04:14:12;;;;;;;10.00;4.50;;;;;;;14.33;71.91;100154.16;110343;1265;23742;-81
2023/08/09 04:16:43;;;;;;;5.00;3.50;;;;;;;14.37;71.78;100153.92;110646;1262;22104;-81
2023/08/09 04:19:23;;;;;;;5.70;3.50;;;;;;;14.39;71.45;100151.04;110521;1262;21982;-83
2023/08/09 04:22:07;;;;;;;4.20;3.20;;;;;;;14.42;71.33;100148.92;110704;1262;21991;-83
2023/08/09 04:24:54;;;;;;;5.10;3.40;;;;;;;14.42;71.33;100148.73;110513;1262;22006;-83
2023/08/09 04:27:38;;;;;;;12.40;3.40;;;;;;;14.44;71.19;100144.77;110736;1262;21962;-81
2023/08/09 04:30:22;;;;;;;6.90;4.20;;;;;;;14.44;70.82;100144.27;110571;1262;23358;-83
2023/08/09 04:33:18;;;;;;;;;;;;;;;;;;;;;
2023/08/09 04:36:16;;;;;;;5.50;3.30;;;;;;;14.41;70.73;100134.65;111837;1252;21961;-83
2023/08/09 04:39:06;;;;;;;;;;;;;;;;;;;;;
2023/08/09 04:41:46;;;;;;;5.20;3.60;;;;;;;14.40;70.68;100121.73;110368;1264;21970;-81
2023/08/09 04:44:43;;;;;;;9.40;3.60;;;;;;;14.47;70.88;100127.52;110669;1264;23002;-81
2023/08/09 04:47:22;;;;;;;5.70;3.50;;;;;;;14.57;71.01;100132.55;109801;1271;21977;-81
2023/08/09 04:49:55;;;;;;;3.40;3.10;;;;;;;14.65;70.97;100128.73;109133;1278;21983;-82
2023/08/09 04:52:27;;;;;;;8.10;4.00;;;;;;;14.74;70.87;100125.05;109101;1278;22019;-82
2023/08/09 04:55:06;;;;;;;10.30;4.20;;;;;;;14.84;70.72;100126.27;109173;1278;22022;-81
2023/08/09 04:57:49;;;;;;;6.00;3.80;;;;;;;14.97;70.67;100132.84;109411;1274;23033;-82
2023/08/09 05:00:26;;;;;;;4.80;3.20;;;;;;;15.08;70.35;100137.10;109812;1269;22005;-80
2023/08/09 05:03:05;;;;;;;6.80;3.50;;;;;;;15.15;69.97;100141.39;110283;1269;21992;-81
2023/08/09 05:06:01;;;;;;;9.80;4.80;;;;;;;15.20;69.35;100140.93;109983;1269;21976;-82
2023/08/09 05:08:38;;;;;;;7.60;3.80;;;;;;;15.21;69.09;100136.33;110222;1269;22044;-80
2023/08/09 05:11:20;;;;;;;5.90;3.60;;;;;;;15.26;69.23;100137.92;109487;1268;22009;-82
2023/08/09 05:14:13;;;;;;;7.10;3.70;;;;;;;15.45;69.79;100138.53;110243;1260;21969;-82
2023/08/09 05:16:51;;;;;;;9.70;3.40;;;;;;;15.68;69.60;100137.64;111006;1260;23045;-80
2023/08/09 05:19:24;;;;;;;8.10;3.90;;;;;;;15.89;69.38;100135.81;110995;1260;23695;-81
2023/08/09 05:22:11;;;;;;;6.90;3.50;;;;;;;16.14;69.00;100137.00;110926;1260;22014;-82
2023/08/09 05:24:43;;;;;;;8.10;3.50;;;;;;;16.33;68.03;100144.57;110545;1266;23666;-81
2023/08/09 05:27:18;;;;;;;11.80;3.30;;;;;;;16.47;67.18;100152.27;109739;1271;21990;-81
2023/08/09 05:30:00;;;;;;;4.60;2.80;;;;;;;16.62;66.72;100153.77;110131;1266;22998;-82
2023/08/09 05:32:44;;;;;;;6.20;2.80;;;;;;;16.80;66.29;100164.16;110166;1266;21971;-80
2023/08/09 05:35:20;;;;;;;3.60;3.10;;;;;;;16.96;65.52;100166.45;109671;1271;22019;-82
2023/08/09 05:38:13;;;;;;;5.90;3.60;;;;;;;17.15;65.13;100169.02;109700;1272;21975;-83
2023/08/09 05:40:55;;;;;;;6.70;3.30;;;;;;;17.33;64.38;100168.51;109706;1272;22018;-83
2023/08/09 05:43:44;;;;;;;7.30;3.40;;;;;;;17.55;64.32;100169.27;109452;1272;21993;-82
2023/08/09 05:46:21;;;;;;;7.70;2.90;;;;;;;17.80;63.60;100171.06;109129;1278;21970;-83
2023/08/09 05:49:00;;;;;;;4.50;3.20;;;;;;;18.01;63.04;100175.62;108833;1282;23735;-82
2023/08/09 05:51:35;;;;;;;9.40;3.70;;;;;;;18.17;62.00;100180.11;108947;1276;21990;-82
2023/08/09 05:54:09;;;;;;;5.60;3.20;;;;;;;18.37;61.67;100179.68;109561;1272;22128;-82
2023/08/09 05:57:12;;;;;;;6.40;3.30;;;;;;;18.52;60.73;100179.27;109801;1272;24435;-82
2023/08/09 05:59:52;;;;;;;6.80;3.60;;;;;;;18.66;59.99;100177.91;109750;1272;22381;-82
2023/08/09 06:02:27;;;;;;;6.70;3.40;;;;;;;18.90;60.58;100177.59;110357;1266;21964;-82
2023/08/09 06:05:27;;;;;;;5.00;3.30;;;;;;;19.24;60.11;100178.87;110726;1260;21949;-83
2023/08/09 06:08:15;;;;;;;6.20;2.70;;;;;;;19.62;59.67;100185.30;111315;1255;21993;-83
2023/08/09 06:11:12;;;;;;;;;;;;;;;;;;;;;
2023/08/09 06:14:33;;;;;;;;;;;;;;;;;;;;;
2023/08/09 06:17:27;;;;;;;3.00;2.20;;;;;;;20.10;55.88;100195.80;109614;1272;23693;-83
2023/08/09 06:20:27;;;;;;;;;;;;;;;;;;;;;
2023/08/09 06:23:14;;;;;;;5.80;2.80;;;;;;;20.37;55.95;100188.86;109699;1272;21988;-83
2023/08/09 06:26:03;;;;;;;4.10;2.50;;;;;;;20.49;54.71;100190.21;109178;1276;22484;-85
2023/08/09 06:28:41;;;;;;;5.10;2.40;;;;;;;20.48;54.04;100188.52;109497;1273;21993;-83
2023/08/09 06:31:17;;;;;;;6.10;2.80;;;;;;;20.41;53.30;100187.87;109798;1267;21992;-84
2023/08/09 06:34:04;;;;;;;7.60;2.70;;;;;;;20.31;53.25;100193.41;109799;1270;22996;-83
2023/08/09 06:36:36;;;;;;;3.70;2.20;;;;;;;20.45;53.70;100195.26;110386;1264;21993;-84
2023/08/09 06:39:27;;;;;;;4.10;2.60;;;;;;;20.80;54.42;100197.07;109969;1268;22004;-83
2023/08/09 06:42:31;;;;;;;4.70;2.00;;;;;;;21.31;53.15;100199.73;110164;1268;22942;-81
2023/08/09 06:45:26;;;;;;;6.30;2.80;;;;;;;21.61;51.41;100202.64;109826;1271;21981;-83
2023/08/09 06:48:35;;;;;;;;;;;;;;;;;;;;;
2023/08/09 06:51:30;;;;;;;6.00;2.30;;;;;;;22.03;49.90;100203.00;109500;1274;21983;-84
2023/08/09 06:54:15;;;;;;;6.00;2.70;;;;;;;22.21;49.38;100200.41;109549;1274;21979;-83
2023/08/09 06:57:02;;;;;;;6.10;2.30;;;;;;;22.46;48.88;100208.80;109167;1275;22052;-83
2023/08/09 06:59:42;;;;;;;4.60;2.70;;;;;;;22.80;49.18;100208.61;109708;1271;21994;-82
2023/08/09 07:02:25;;;;;;;5.00;1.90;;;;;;;23.22;48.05;100207.53;109910;1271;21981;-82
2023/08/09 07:05:24;;;;;;;6.20;2.40;;;;;;;23.54;47.34;100209.69;109579;1271;23036;-84
2023/08/09 07:07:55;;;;;;;6.20;2.60;;;;;;;23.69;46.59;100207.76;109811;1271;21902;-82
2023/08/09 07:10:56;;;;;;;3.90;2.10;;;;;;;23.89;45.69;100212.47;109766;1271;23034;-83
2023/08/09 07:13:36;;;;;;;5.90;3.00;;;;;;;23.94;44.90;100211.45;109535;1275;22016;-83
2023/08/09 07:16:11;;;;;;;3.90;2.10;;;;;;;24.00;44.95;100211.45;110021;1265;23619;-83
2023/08/09 07:18:42;;;;;;;4.80;2.50;;;;;;;24.12;44.39;100216.95;109482;1264;1451055;-84
2023/08/09 07:21:18;;;;;;;5.60;2.20;;;;;;;24.14;43.59;100214.67;110792;1262;22912;-82
2023/08/09 07:24:01;;;;;;;5.30;2.40;;;;;;;23.99;43.45;100210.64;110489;1264;21992;-84
2023/08/09 07:26:40;;;;;;;6.10;2.30;;;;;;;23.92;43.40;100215.23;110391;1264;23602;-85
2023/08/09 07:29:30;;;;;;;5.20;2.30;;;;;;;23.73;43.32;100211.88;110333;1265;23696;-84
2023/08/09 07:32:22;;;;;;;2.70;2.10;;;;;;;23.52;43.56;100212.26;110968;1260;23032;-84
2023/08/09 07:35:03;;;;;;;3.50;2.30;;;;;;;23.33;43.57;100218.24;110609;1261;22953;-83
2023/08/09 07:37:50;;;;;;;7.20;2.80;;;;;;;22.94;43.69;100221.17;111029;1261;22103;-84
2023/08/09 07:40:25;;;;;;;8.20;2.30;;;;;;;22.60;44.57;100224.39;110951;1261;23690;-84
2023/08/09 07:43:03;;;;;;;5.40;2.30;;;;;;;22.41;44.96;100228.21;110215;1267;23640;-82
2023/08/09 07:45:36;;;;;;;7.60;2.30;;;;;;;22.30;45.06;100233.95;110256;1267;22074;-81
2023/08/09 07:48:16;;;;;;;6.90;2.10;;;;;;;22.11;45.01;100235.14;110466;1266;21970;-80
2023/08/09 07:51:24;;;;;;;;;;;;;;;;;;;;;
2023/08/09 07:54:38;;;;;;;4.80;2.00;;;;;;;21.41;45.33;100243.25;110876;1260;23706;-83
2023/08/09 07:57:25;;;;;;;4.90;1.90;;;;;;;21.15;46.36;100244.70;110644;1260;23711;-81
2023/08/09 08:00:14;;;;;;;17.20;3.30;;;;;;;21.09;47.14;100249.78;110261;1267;23594;-80
2023/08/09 08:02:53;;;;;;;4.20;1.90;;;;;;;20.96;46.97;100251.75;110847;1261;23721;-80
2023/08/09 08:05:44;;;;;;;5.90;2.40;;;;;;;20.67;46.47;100256.77;111136;1261;22655;-81
2023/08/09 08:09:17;;;;;;;5.30;1.90;;;;;;;20.32;47.44;100261.17;111086;1260;22818;-81
2023/08/09 08:12:26;;;;;;;;;;;;;;;;;;;;;
2023/08/09 08:15:39;;;;;;;6.20;1.80;;;;;;;20.18;48.80;100263.77;109785;1273;21940;-81
2023/08/09 08:18:53;;;;;;;5.50;2.20;;;;;;;20.06;49.11;100268.40;109837;1273;24308;-81
2023/08/09 08:21:37;;;;;;;3.50;1.70;;;;;;;19.99;49.10;100272.30;109849;1273;21994;-82
2023/08/09 08:24:40;;;;;;;;;;;;;;;;;;;;;
2023/08/09 08:27:55;;;;;;;4.50;2.10;;;;;;;19.76;49.40;100271.39;109285;1272;22110;-82
2023/08/09 08:30:51;;;;;;;8.20;2.10;;;;;;;19.56;49.90;100261.98;109340;1280;22014;-81
2023/08/09 08:33:27;;;;;;;4.80;1.80;;;;;;;19.60;50.16;100277.56;109265;1279;22174;-82
2023/08/09 08:36:28;;;;;;;3.60;1.70;;;;;;;19.59;50.35;100278.73;109440;1277;22647;-82
2023/08/09 08:39:44;;;;;;;4.70;1.70;;;;;;;19.51;50.79;100278.45;109229;1279;22229;-81
2023/08/09 08:43:01;;;;;;;4.10;1.50;;;;;;;19.49;50.83;100286.57;109413;1275;22003;-82
2023/08/09 08:47:04;;;;;;;4.20;1.90;;;;;;;19.32;50.90;100288.18;110483;1269;22070;-82
2023/08/09 08:51:20;;;;;;;4.70;2.20;;;;;;;19.07;51.18;100286.84;111156;1261;23078;-82
2023/08/09 08:58:14;;;;;;;5.30;2.00;;;;;;;18.61;53.02;100283.65;108949;1284;22006;-82
2023/08/09 09:01:26;;;;;;;3.90;3.00;;;;;;;18.54;53.78;100284.02;108735;1284;22006;-81
2023/08/09 09:04:13;;;;;;;;;;;;;;;;;;;;;
2023/08/09 09:06:58;;;;;;;4.20;3.40;;;;;;;18.40;54.74;100270.71;108539;1288;22995;-83
2023/08/09 09:10:00;;;;;;;3.60;2.70;;;;;;;18.35;55.28;100267.23;108698;1288;22106;-81
2023/08/09 09:12:28;;;;;;;4.70;2.60;;;;;;;18.32;55.79;100263.41;108629;1288;23553;-82
2023/08/09 09:15:03;;;;;;;4.30;2.30;;;;;;;18.35;55.94;100267.36;108508;1292;22068;-83
2023/08/09 09:17:39;;;;;;;7.00;2.50;;;;;;;18.35;56.36;100271.57;108069;1292;22025;-81
2023/08/09 09:20:27;;;;;;;5.50;2.40;;;;;;;18.36;56.53;100272.27;108446;1287;22023;-83
2023/08/09 09:23:02;;;;;;;6.90;2.30;;;;;;;18.36;56.95;100276.85;108801;1282;22194;-82
2023/08/09 09:25:38;;;;;;;6.30;2.30;;;;;;;18.43;57.13;100277.58;108951;1282;22051;-82
2023/08/09 09:28:38;;;;;;;4.70;1.90;;;;;;;18.47;56.90;100280.63;108981;1282;22477;-82
2023/08/09 09:31:13;;;;;;;3.80;1.90;;;;;;;18.45;56.51;100281.12;109458;1266;21967;-84
2023/08/09 09:34:35;;;;;;;3.40;1.80;;;;;;;18.42;56.31;100283.26;111118;1260;21959;-83
2023/08/09 09:37:30;;;;;;;4.50;1.90;;;;;;;18.41;56.37;100282.27;111584;1254;21971;-83
2023/08/09 09:40:15;;;;;;;5.00;2.10;;;;;;;18.44;56.21;100280.83;111756;1254;21954;-83
2023/08/09 09:42:55;;;;;;;3.10;2.20;;;;;;;18.46;56.18;100277.54;111493;1254;24328;-82
2023/08/09 09:45:31;;;;;;;4.50;2.50;;;;;;;18.45;56.19;100279.34;111397;1254;22005;-82
2023/08/09 09:48:29;;;;;;;5.50;2.60;;;;;;;18.46;56.32;100277.48;111617;1254;21974;-82
2023/08/09 09:51:41;;;;;;;6.20;2.30;;;;;;;18.42;56.53;100280.08;111682;1254;21978;-82
2023/08/09 09:54:59;;;;;;;3.90;2.50;;;;;;;18.40;56.92;100274.77;110937;1257;22042;-79
2023/08/09 09:57:35;;;;;;;9.00;2.90;;;;;;;18.40;56.89;100275.48;110545;1265;21966;-82
2023/08/09 10:00:14;;;;;;;7.10;4.50;;;;;;;18.41;57.14;100275.23;109690;1272;22418;-82
2023/08/09 10:02:53;;;;;;;6.20;3.30;;;;;;;18.37;57.26;100273.58;109285;1278;23085;-82
2023/08/09 10:05:39;;;;;;;6.00;2.70;;;;;;;18.30;57.76;100271.97;109131;1279;22192;-82
2023/08/09 10:08:35;;;;;;;5.30;3.00;;;;;;;18.23;57.51;100273.55;109092;1278;23747;-82
2023/08/09 10:11:30;;;;;;;5.10;3.50;;;;;;;18.21;58.23;100270.70;108718;1284;23654;-83
2023/08/09 10:14:11;;;;;;;4.80;2.90;;;;;;;18.27;58.56;100262.15;108871;1285;22005;-82
2023/08/09 10:17:30;;;;;;;5.10;3.80;;;;;;;18.32;58.38;100264.55;109258;1278;21950;-83
2023/08/09 10:20:13;;;;;;;27.30;24.50;;;;;;;18.27;58.78;100264.79;109729;1267;21967;-83
2023/08/09 10:23:06;;;;;;;7.10;4.10;;;;;;;18.30;58.85;100262.29;110629;1267;21994;-84
2023/08/09 10:25:55;;;;;;;5.80;3.00;;;;;;;18.28;58.90;100260.79;111483;1247;21977;-84
2023/08/09 10:28:48;;;;;;;5.80;3.00;;;;;;;18.27;58.85;100268.64;111394;1256;21957;-84
2023/08/09 10:32:05;;;;;;;4.00;2.70;;;;;;;18.27;59.09;100267.75;111184;1256;23731;-86
2023/08/09 10:34:50;;;;;;;9.20;2.90;;;;;;;18.28;59.34;100269.60;111366;1256;21962;-84
2023/08/09 10:37:43;;;;;;;4.60;2.30;;;;;;;18.35;59.86;100270.17;111480;1256;21987;-84
2023/08/09 10:40:36;;;;;;;5.20;3.10;;;;;;;18.45;59.85;100268.64;111404;1256;21990;-86
2023/08/09 10:43:23;;;;;;;7.00;2.70;;;;;;;18.55;59.99;100272.11;111243;1256;22725;-84
2023/08/09 10:45:59;;;;;;;3.60;2.10;;;;;;;18.62;59.27;100273.73;110572;1263;21978;-84
2023/08/09 10:49:23;;;;;;;6.00;2.10;;;;;;;18.57;58.75;100272.34;109975;1268;22313;-84
2023/08/09 10:52:46;;;;;;;3.80;2.10;;;;;;;18.55;58.76;100272.61;109611;1274;23742;-83
2023/08/09 10:56:45;;;;;;;4.60;2.20;;;;;;;18.58;58.63;100277.02;109239;1281;21977;-84
2023/08/09 10:59:38;;;;;;;5.80;2.30;;;;;;;18.57;58.46;100274.42;108933;1285;23127;-83
2023/08/09 11:02:26;;;;;;;4.20;2.10;;;;;;;18.57;58.60;100275.13;108609;1287;22016;-84
2023/08/09 11:05:33;;;;;;;3.60;2.10;;;;;;;18.59;58.45;100277.48;108715;1287;22006;-83
2023/08/09 11:08:20;;;;;;;4.50;2.20;;;;;;;18.58;58.43;100278.42;109086;1281;23615;-83
2023/08/09 11:14:14;;;;;;;6.20;2.20;;;;;;;18.49;57.88;100282.38;109470;1275;22520;-84
2023/08/09 11:16:58;;;;;;;3.40;2.20;;;;;;;18.43;58.20;100271.00;109636;1275;21974;-82
2023/08/09 11:19:54;;;;;;;5.70;2.90;;;;;;;18.58;58.66;100279.27;109609;1269;23055;-83
2023/08/09 11:23:04;;;;;;;3.00;2.10;;;;;;;18.63;58.62;100280.72;109578;1275;21989;-84
2023/08/09 11:26:00;;;;;;;5.80;2.50;;;;;;;18.62;58.52;100285.71;109543;1275;21999;-83
2023/08/09 11:29:01;;;;;;;3.70;2.10;;;;;;;18.58;58.40;100282.98;109632;1272;23046;-82
2023/08/09 11:31:53;;;;;;;2.40;1.70;;;;;;;18.54;58.32;100283.66;110300;1267;22022;-82
2023/08/09 11:34:57;;;;;;;2.90;1.70;;;;;;;18.39;57.91;100286.11;110358;1269;22023;-83
2023/08/09 11:37:40;;;;;;;3.50;2.30;;;;;;;18.26;58.14;100284.23;110496;1269;21980;-85
2023/08/09 11:41:08;;;;;;;3.40;2.20;;;;;;;18.11;58.32;100281.95;110377;1265;23043;-82
2023/08/09 11:44:44;;;;;;;;;;;;;;;17.89;58.46;100274.84;110898;1265;21957;-79
2023/08/09 11:48:25;;;;;;;4.60;3.00;;;;;;;17.80;59.05;100275.29;110490;1260;21970;-83
2023/08/09 11:51:52;;;;;;;5.80;3.50;;;;;;;17.86;59.00;100282.10;109925;1270;21974;-86
2023/08/09 11:55:34;;;;;;;5.90;4.20;;;;;;;17.68;58.69;100282.80;109382;1271;23884;-84
2023/08/09 11:59:31;;;;;;;4.60;2.90;;;;;;;17.51;59.54;100282.70;112268;1246;21950;-83
2023/08/09 12:02:54;;;;;;;;;;;;;;;;;;;;;
2023/08/09 12:06:47;;;;;;;2.70;2.00;;;;;;;17.52;60.01;100285.44;110963;1265;21973;-82
2023/08/09 12:10:40;;;;;;;;;;;;;;;;;;;;;
2023/08/09 12:14:06;;;;;;;;;;;;;;;;;;;;;
2023/08/09 12:18:01;;;;;;;2.30;1.90;;;;;;;17.71;59.76;100294.36;109723;1274;24685;-83
2023/08/09 12:21:58;;;;;;;2.60;2.10;;;;;;;17.80;59.55;100295.84;109614;1274;23069;-84
2023/08/09 12:25:06;;;;;;;4.20;2.20;;;;;;;18.07;59.61;100298.21;109424;1276;22028;-83
2023/08/09 12:28:49;;;;;;;;;;;;;;;;;;;;;
2023/08/09 12:32:23;;;;;;;;;;;;;;;;;;;;;
2023/08/09 12:36:03;;;;;;;4.10;1.90;;;;;;;19.03;58.46;100293.17;110203;1267;23065;-84
2023/08/09 12:39:03;;;;;;;4.20;2.80;;;;;;;19.20;57.91;100291.70;110555;1267;21977;-85
2023/08/09 12:42:15;;;;;;;3.90;2.40;;;;;;;19.27;56.81;100292.94;110489;1262;21785;-83
2023/08/09 12:45:06;;;;;;;4.00;2.00;;;;;;;19.33;56.73;100290.92;110569;1262;23656;-84
2023/08/09 12:47:54;;;;;;;3.00;2.20;;;;;;;19.35;56.44;100295.70;111489;1255;21964;-82
2023/08/09 12:50:39;;;;;;;6.90;2.50;;;;;;;19.34;56.09;100300.36;111599;1255;21989;-83
2023/08/09 12:53:23;;;;;;;6.20;2.90;;;;;;;19.26;55.91;100300.77;111385;1255;21959;-82
2023/08/09 12:56:28;;;;;;;3.70;2.30;;;;;;;19.16;56.00;100301.73;111210;1254;23606;-83
2023/08/09 12:59:42;;;;;;;6.60;2.70;;;;;;;19.19;56.63;100300.62;111452;1255;23742;-86
2023/08/09 13:03:01;;;;;;;4.90;2.50;;;;;;;19.25;56.80;100300.31;111500;1255;23604;-84
2023/08/09 13:06:10;;;;;;;;;;;;;;;;;;;;;
2023/08/09 13:09:40;;;;;;;4.50;3.10;;;;;;;19.38;56.49;100296.73;110859;1261;23715;-83
2023/08/09 13:13:27;;;;;;;3.60;2.10;;;;;;;19.48;56.31;100295.75;110156;1268;22002;-84
2023/08/09 13:16:31;;;;;;;3.70;2.00;;;;;;;19.53;56.04;100295.60;109312;1277;21993;-82
2023/08/09 13:20:01;;;;;;;;;;;;;;;;;;;;;
2023/08/09 13:23:41;;;;;;;;;;;;;;;;;;;;;
2023/08/09 13:26:48;;;;;;;;;;;;;;;;;;;;;
2023/08/09 13:30:12;;;;;;;4.90;2.70;;;;;;;19.98;55.40;100286.86;108742;1287;22011;-86
2023/08/09 13:36:16;;;;;;;4.60;2.30;;;;;;;20.07;54.43;100285.45;108755;1283;22607;-85
2023/08/09 13:39:16;;;;;;;3.60;2.60;;;;;;;20.07;54.19;100287.36;109417;1277;23379;-85
2023/08/09 13:42:15;;;;;;;3.60;1.80;;;;;;;20.07;53.88;100289.71;110162;1268;22171;-83
2023/08/09 13:45:24;;;;;;;4.20;2.00;;;;;;;20.02;53.48;100288.86;109691;1275;22104;-84
2023/08/09 13:48:58;;;;;;;3.20;2.00;;;;;;;19.97;53.48;100286.56;110110;1270;23088;-84
2023/08/09 13:52:33;;;;;;;5.20;1.90;;;;;;;19.91;53.13;100290.56;110169;1270;22835;-85
2023/08/09 13:55:49;;;;;;;3.40;2.10;;;;;;;19.91;53.37;100288.65;109925;1270;22293;-82
2023/08/09 13:58:56;;;;;;;3.30;2.10;;;;;;;20.00;53.59;100288.09;109917;1270;21949;-83
2023/08/09 14:02:12;;;;;;;;;;;;;;;;;;;;;